Latest Weather Observations for Camden

IDN60801

Issued at 12:35 pm EST Sunday 20 April 2014 (issued every 30 minutes, with the page automatically refreshed every 10 minutes)

About weather observations | Map of weather stations | Latest weather observations for NSW | Other Formats
Station Details ID: 068192 Name: CAMDEN AIRPORT AWS Lat: -34.04 Lon: 150.69 Height: 73.9 m
Data from the previous 72 hours. | See also: Recent months at Camden
Date/Time
EST
Temp
°C
App
Temp
°C
Dew
Point
Rel
Hum
%
Delta-T
°C
Wind Press
QNH
hPa
Press
MSL
hPa
Rain
since 9 am
mm
Dir
 
Spd
km/h
Gust
km/h
Spd
kts
Gust
kts
20/12:30pm 22.4 19.7 10.5 47 6.5 N 15 22 8 12 1015.5 - 0.0
20/12:00pm 21.8 18.6 11.2 51 5.9 NNE 19 28 10 15 1016.2 1016.1 0.0
20/11:30am 21.7 20.8 10.8 50 6.0 NNE 6 15 3 8 1016.9 - 0.0
20/11:00am 20.7 19.6 9.9 50 5.8 N 6 9 3 5 1017.5 - 0.0
20/10:30am 20.2 18.8 9.5 50 5.7 N 7 13 4 7 1017.9 - 0.0
20/10:00am 18.9 17.7 9.4 54 5.0 N 6 7 3 4 1018.2 - 0.0
20/09:30am 16.9 16.9 9.8 63 3.7 CALM 0 0 0 0 1018.5 - 0.0
20/09:00am 14.8 13.6 9.4 70 2.8 S 6 9 3 5 1018.6 1018.5 0.0
20/08:30am 12.9 12.0 9.2 78 1.9 SSE 4 9 2 5 1018.6 - 0.0
20/08:00am 11.0 10.0 8.8 86 1.1 SE 4 7 2 4 1018.6 - 0.0
20/07:30am 9.6 8.6 8.7 94 0.4 SSE 4 7 2 4 1018.4 - 0.0
20/07:00am 8.5 6.9 7.9 96 0.3 SSE 6 7 3 4 1018.1 - 0.0
20/06:30am 7.7 6.6 6.8 94 0.4 SE 2 7 1 4 1017.7 - 0.0
20/06:00am 8.0 7.4 7.2 95 0.4 SE 0 0 0 0 1017.6 1017.5 0.0
20/05:30am 7.8 6.3 6.9 94 0.4 SW 4 7 2 4 1017.5 - 0.0
20/05:00am 8.3 7.6 7.1 92 0.6 CALM 0 0 0 0 1017.2 - 0.0
20/04:30am 8.3 7.6 7.1 92 0.6 CALM 0 0 0 0 1017.2 - 0.0
20/04:00am 8.9 8.3 7.4 90 0.7 CALM 0 0 0 0 1017.1 - 0.0
20/03:30am 9.0 6.7 7.5 90 0.7 ESE 9 13 5 7 1017.0 - 0.0
20/03:00am 9.4 7.6 8.0 91 0.7 S 7 11 4 6 1017.3 1017.2 0.0
20/02:30am 9.5 9.1 8.1 91 0.7 CALM 0 0 0 0 1017.5 - 0.0
20/02:00am 9.3 8.8 7.9 91 0.7 CALM 0 0 0 0 1017.5 - 0.0
20/01:30am 9.4 8.9 7.8 90 0.8 CALM 0 0 0 0 1017.9 - 0.0
20/01:00am 9.5 9.0 7.8 89 0.8 CALM 0 0 0 0 1018.1 - 0.0
20/12:30am 10.2 9.8 8.3 88 0.9 CALM 0 0 0 0 1018.3 - 0.0
20/12:00am 10.3 10.0 8.7 90 0.8 NNW 0 0 0 0 1018.5 1018.4 0.0
 
Date/Time
EST
Temp
°C
App
Temp
°C
Dew
Point
Rel
Hum
%
Delta-T
°C
Wind Press
QNH
hPa
Press
MSL
hPa
Rain
since 9 am
mm
Dir
 
Spd
km/h
Gust
km/h
Spd
kts
Gust
kts
19/11:30pm 10.0 9.6 8.4 90 0.8 CALM 0 0 0 0 1018.5 - 0.0
19/11:00pm 9.7 9.3 8.1 90 0.8 CALM 0 0 0 0 1018.5 - 0.0
19/10:30pm 10.1 9.7 8.2 88 0.9 CALM 0 0 0 0 1018.7 - 0.0
19/10:00pm 10.5 10.1 8.4 87 1.0 CALM 0 0 0 0 1018.8 - 0.0
19/09:30pm 11.2 11.0 8.9 86 1.1 NNW 0 0 0 0 1018.7 - 0.0
19/09:00pm 11.7 11.6 9.3 85 1.2 CALM 0 0 0 0 1018.5 1018.4 0.0
19/08:30pm 12.6 12.4 8.9 78 1.9 CALM 0 0 0 0 1018.3 - 0.0
19/08:00pm 13.2 12.9 8.5 73 2.3 W 0 0 0 0 1018.0 - 0.0
19/07:30pm 13.8 13.1 8.4 70 2.7 W 2 7 1 4 1017.7 - 0.0
19/07:00pm 14.3 14.0 8.5 68 2.9 CALM 0 0 0 0 1017.4 - 0.0
19/06:30pm 14.5 14.1 8.2 66 3.2 CALM 0 0 0 0 1017.0 - 0.0
19/06:00pm 14.9 14.3 7.5 61 3.7 CALM 0 0 0 0 1016.5 1016.4 0.0
19/05:30pm 15.6 13.2 7.1 57 4.2 SSE 9 13 5 7 1015.8 - 0.0
19/05:00pm 17.0 14.2 7.1 52 4.9 SE 11 17 6 9 1015.7 - 0.0
19/04:30pm 17.8 14.3 7.2 50 5.3 SE 15 24 8 13 1015.3 - 0.0
19/04:00pm 18.7 14.8 6.9 46 5.9 SE 17 26 9 14 1014.9 - 0.0
19/03:30pm 20.1 16.8 8.1 46 6.2 ESE 15 22 8 12 1014.7 - 0.0
19/03:00pm 20.6 16.5 7.9 44 6.6 SE 19 24 10 13 1014.4 1014.3 0.0
19/02:30pm 21.0 17.4 8.3 44 6.7 E 17 26 9 14 1014.3 - 0.0
19/02:00pm 22.0 19.8 7.8 40 7.4 ESE 9 15 5 8 1014.2 - 0.0
19/01:30pm 21.9 21.0 9.1 44 6.9 SE 4 9 2 5 1014.4 - 0.0
19/01:00pm 21.9 20.3 8.8 43 7.0 NE 7 11 4 6 1014.6 - 0.0
19/12:30pm 20.5 18.4 8.2 45 6.4 SSE 9 15 5 8 1015.1 - 0.0
19/12:00pm 20.6 18.9 9.8 50 5.8 SSE 9 15 5 8 1015.6 1015.6 0.0
19/11:30am 21.3 19.8 9.2 46 6.5 N 7 11 4 6 1015.9 - 0.0
19/11:00am 20.2 18.0 9.5 50 5.7 SSW 11 17 6 9 1016.3 - 0.0
19/10:30am 19.7 17.6 9.6 52 5.4 SW 11 19 6 10 1016.6 - 0.0
19/10:00am 19.0 17.7 9.8 55 4.9 SSW 7 13 4 7 1016.7 - 0.0
19/09:30am 18.0 16.4 10.1 60 4.2 SE 9 13 5 7 1016.9 - 0.0
19/09:00am 16.9 17.2 11.0 68 3.2 CALM 0 0 0 0 1016.9 1016.8 0.0
19/08:30am 15.7 15.9 10.7 72 2.7 CALM 0 0 0 0 1017.1 - 0.0
19/08:00am 13.7 13.9 10.5 81 1.7 CALM 0 0 0 0 1016.9 - 0.0
19/07:30am 11.7 11.8 10.3 91 0.7 CALM 0 0 0 0 1016.6 - 0.0
19/07:00am 10.0 9.9 9.5 97 0.3 CALM 0 0 0 0 1016.4 - 0.0
19/06:30am 8.8 8.3 8.0 95 0.4 CALM 0 0 0 0 1016.3 - 0.0
19/06:00am 9.3 9.0 8.5 95 0.4 CALM 0 0 0 0 1015.8 1015.8 0.0
19/05:30am 9.2 8.8 8.3 94 0.4 CALM 0 0 0 0 1015.7 - 0.0
19/05:00am 9.0 8.5 7.9 93 0.5 CALM 0 0 0 0 1015.4 - 0.0
19/04:30am 9.9 9.6 8.8 93 0.5 CALM 0 0 0 0 1015.3 - 0.0
19/04:00am 9.8 9.5 8.6 92 0.6 CALM 0 0 0 0 1015.0 - 0.0
19/03:30am 10.2 9.9 8.5 89 0.8 CALM 0 0 0 0 1014.9 - 0.0
19/03:00am 11.0 10.9 9.4 90 0.8 CALM 0 0 0 0 1014.8 1014.8 0.0
19/02:30am 10.6 9.2 9.4 92 0.6 N 7 9 4 5 1014.8 - 0.0
19/02:00am 11.0 10.9 9.4 90 0.8 CALM 0 0 0 0 1014.7 - 0.0
19/01:30am 11.1 10.1 9.0 87 1.0 S 4 9 2 5 1014.7 - 0.0
19/01:00am 10.5 10.1 8.1 85 1.2 CALM 0 0 0 0 1014.5 - 0.0
19/12:30am 11.3 11.0 8.7 84 1.3 CALM 0 6 0 3 1014.3 - 0.0
19/12:06am 11.5 10.0 9.1 85 1.2 SSE 7 11 4 6 1014.3 - 0.0
19/12:00am 11.0 9.4 8.8 86 1.1 SSE 7 11 4 6 1014.2 1014.1 0.0
 
Date/Time
EST
Temp
°C
App
Temp
°C
Dew
Point
Rel
Hum
%
Delta-T
°C
Wind Press
QNH
hPa
Press
MSL
hPa
Rain
since 9 am
mm
Dir
 
Spd
km/h
Gust
km/h
Spd
kts
Gust
kts
18/11:48pm 11.0 9.3 8.2 83 1.4 SSE 7 9 4 5 1014.1 - 0.0
18/11:30pm 12.2 10.3 9.0 81 1.6 S 9 13 5 7 1014.1 - 0.0
18/11:00pm 13.4 11.4 8.5 72 2.5 ESE 9 9 5 5 1013.9 - 0.0
18/10:30pm 13.3 12.0 9.9 80 1.8 NE 7 9 4 5 1014.1 - 0.0
18/10:00pm 12.6 10.8 9.6 82 1.5 NW 9 13 5 7 1014.1 - 0.0
18/09:30pm 12.9 11.6 9.9 82 1.5 NNW 7 9 4 5 1014.5 - 0.0
18/09:00pm 13.7 12.3 9.7 77 2.1 N 7 11 4 6 1014.5 1014.4 0.0
18/08:30pm 14.5 13.5 10.3 76 2.2 W 6 9 3 5 1014.5 - 0.0
18/08:00pm 15.7 14.5 9.4 66 3.3 NNW 6 7 3 4 1014.2 - 0.0
18/07:30pm 16.5 15.2 9.9 65 3.5 N 7 9 4 5 1014.1 - 0.0
18/07:00pm 16.0 14.8 9.7 66 3.3 N 6 9 3 5 1013.9 - 0.0
18/06:30pm 18.4 18.0 8.1 51 5.3 CALM 0 0 0 0 1013.5 - 0.0
18/06:00pm 19.2 16.6 7.9 48 5.8 W 11 13 6 7 1013.3 1013.2 0.0
18/05:30pm 20.3 17.7 7.7 44 6.5 W 11 19 6 10 1013.2 - 0.0
18/05:00pm 22.0 19.4 7.8 40 7.4 W 11 19 6 10 1012.7 - 0.0
18/04:30pm 23.0 18.5 7.1 36 8.3 W 20 26 11 14 1012.5 - 0.0
18/04:00pm 23.8 19.6 7.4 35 8.6 WSW 19 26 10 14 1012.3 - 0.0
18/03:30pm 24.1 18.4 6.8 33 9.0 WSW 26 37 14 20 1012.3 - 0.0
18/03:00pm 24.6 18.7 7.3 33 9.1 SW 28 39 15 21 1012.4 1012.3 0.0
18/02:30pm 25.5 20.7 8.9 35 9.0 W 24 35 13 19 1012.3 - 0.0
18/02:00pm 25.1 21.9 8.6 35 8.9 WSW 15 20 8 11 1012.4 - 0.0
18/01:30pm 25.0 21.6 9.3 37 8.6 SW 17 26 9 14 1012.5 - 0.0
18/01:00pm 24.7 20.8 8.6 36 8.7 W 19 26 10 14 1012.8 - 0.0
18/12:30pm 24.1 19.7 7.3 34 8.8 W 20 26 11 14 1013.4 - 0.0
18/12:00pm 23.9 19.5 7.5 35 8.6 W 20 30 11 16 1013.8 1013.7 0.0
18/11:30am 23.1 20.4 8.8 40 7.7 W 13 20 7 11 1014.6 - 0.0
18/11:00am 21.7 21.8 11.4 52 5.7 NE 2 7 1 4 1015.3 - 0.0
18/10:30am 20.6 20.6 11.2 55 5.2 N 2 7 1 4 1015.8 - 0.0
18/10:00am 19.4 19.4 11.2 59 4.5 SSW 2 7 1 4 1016.4 - 0.0
18/09:30am 17.8 18.1 10.9 64 3.7 CALM 0 0 0 0 1016.8 - 0.0
18/09:00am 15.7 15.8 10.2 70 2.9 CALM 0 0 0 0 1016.8 1016.7 0.0
18/08:30am 14.6 14.9 10.8 78 2.0 CALM 0 0 0 0 1017.0 - 0.0
18/08:00am 11.9 12.0 10.3 90 0.8 CALM 0 0 0 0 1017.2 - 0.0
18/07:30am 10.1 10.1 9.8 98 0.2 CALM 0 0 0 0 1017.2 - 0.0
18/07:27am 9.8 9.7 9.5 98 0.1 CALM 0 0 0 0 1017.3 - 0.0
18/07:24am 9.8 9.8 9.7 99 0.1 CALM 0 0 0 0 1017.3 - 0.0
18/07:00am 9.0 8.7 8.7 98 0.1 CALM 0 0 0 0 1017.2 - 0.0
18/06:55am 8.7 8.3 8.4 98 0.1 CALM 0 0 0 0 1017.2 - 0.0
18/06:53am 8.6 8.2 8.3 98 0.1 CALM 0 0 0 0 1017.2 - 0.0
18/06:50am 8.6 8.2 8.3 98 0.1 CALM 0 0 0 0 1017.2 - 0.0
18/06:45am 8.3 7.8 8.0 98 0.1 CALM 0 0 0 0 1017.2 - 0.0
18/06:30am 8.2 7.7 7.8 97 0.2 CALM 0 0 0 0 1017.2 - 0.0
18/06:17am 8.5 8.1 8.1 97 0.2 CALM 0 0 0 0 1017.1 - 0.0
18/06:12am 8.3 7.8 7.9 97 0.2 CALM 0 0 0 0 1017.1 - 0.0
18/06:09am 8.3 7.8 7.9 97 0.2 CALM 0 0 0 0 1017.1 - 0.0
18/06:00am 8.4 7.9 8.0 97 0.2 CALM 0 0 0 0 1017.1 1017.0 0.0
18/05:57am 8.5 8.1 8.1 97 0.2 CALM 0 0 0 0 1017.1 - 0.0
18/05:30am 8.7 8.3 8.3 97 0.2 CALM 0 0 0 0 1017.1 - 0.0
18/05:20am 8.6 8.1 8.0 96 0.3 CALM 0 0 0 0 1017.1 - 0.0
18/05:05am 8.8 8.4 8.2 96 0.3 CALM 0 0 0 0 1017.1 - 0.0
18/05:00am 9.1 8.8 8.6 97 0.2 CALM 0 0 0 0 1017.1 - 0.0
18/04:50am 9.3 9.0 8.7 96 0.3 CALM 0 0 0 0 1017.2 - 0.0
18/04:30am 9.5 9.3 8.9 96 0.3 CALM 0 0 0 0 1017.3 - 0.0
18/04:25am 9.5 9.3 8.9 96 0.3 CALM 0 0 0 0 1017.3 - 0.0
18/04:00am 9.1 8.7 8.3 95 0.4 CALM 0 0 0 0 1017.4 - 0.0
18/03:54am 9.1 8.7 8.3 95 0.4 CALM 0 0 0 0 1017.5 - 0.0
18/03:34am 9.8 9.6 9.2 96 0.3 CALM 0 0 0 0 1017.5 - 0.0
18/03:30am 10.0 9.9 9.4 96 0.3 CALM 0 0 0 0 1017.5 - 0.0
18/03:00am 10.2 10.1 9.6 96 0.3 CALM 0 0 0 0 1017.6 1017.5 0.0
18/02:30am 9.7 9.4 8.8 94 0.4 CALM 0 0 0 0 1017.8 - 0.0
18/02:00am 10.2 8.9 9.1 93 0.5 SE 6 9 3 5 1017.9 - 0.0
18/01:30am 10.8 10.7 9.6 92 0.6 CALM 0 0 0 0 1018.1 - 0.0
18/01:00am 10.9 10.9 9.8 93 0.6 CALM 0 0 0 0 1018.5 - 0.0
18/12:30am 11.9 12.1 10.6 92 0.7 CALM 0 0 0 0 1018.7 - 0.0
18/12:00am 11.6 11.7 10.2 91 0.7 CALM 0 0 0 0 1019.0 1018.9 0.0
 
Date/Time
EST
Temp
°C
App
Temp
°C
Dew
Point
Rel
Hum
%
Delta-T
°C
Wind Press
QNH
hPa
Press
MSL
hPa
Rain
since 9 am
mm
Dir
 
Spd
km/h
Gust
km/h
Spd
kts
Gust
kts
17/11:30pm 12.0 11.9 10.7 92 0.7 N 2 6 1 3 1019.2 - 0.0
17/11:00pm 12.0 11.1 10.7 92 0.7 NNW 6 7 3 4 1019.5 - 0.0
17/10:30pm 12.5 11.6 10.7 89 0.9 WNW 6 7 3 4 1019.7 - 0.0
17/10:00pm 12.9 11.9 11.1 89 0.9 N 7 7 4 4 1019.9 - 0.0
17/09:30pm 12.8 12.4 11.0 89 0.9 NNW 4 6 2 3 1019.9 - 0.0
17/09:00pm 13.9 12.8 10.7 81 1.7 WSW 7 9 4 5 1019.8 1019.7 0.0
17/08:30pm 14.0 14.5 11.5 85 1.3 CALM 0 0 0 0 1019.7 - 0.0
17/08:00pm 14.3 13.7 11.8 85 1.3 NNW 6 7 3 4 1019.5 - 0.0
17/07:30pm 15.7 14.8 11.5 76 2.3 SSW 7 11 4 6 1019.3 - 0.0
17/07:00pm 16.2 15.3 11.4 73 2.6 S 7 9 4 5 1019.1 - 0.0
17/06:30pm 16.7 16.6 10.8 68 3.2 SW 2 7 1 4 1018.9 - 0.0
17/06:00pm 17.8 16.1 11.1 65 3.6 SSE 11 19 6 10 1018.6 1018.5 0.0
17/05:30pm 18.4 16.7 11.2 63 3.9 SE 11 17 6 9 1018.2 - 0.0
17/05:00pm 19.5 17.1 10.2 55 5.0 SE 13 22 7 12 1017.7 - 0.0
17/04:30pm 21.1 18.4 9.0 46 6.4 SE 13 20 7 11 1017.4 - 0.0
17/04:00pm 22.9 19.8 7.4 37 8.1 S 13 22 7 12 1017.2 - 0.0
17/03:30pm 23.2 20.0 6.9 35 8.4 S 13 17 7 9 1017.3 - 0.0
17/03:00pm 22.8 19.9 6.6 35 8.3 S 11 17 6 9 1017.4 1017.3 0.0
17/02:30pm 24.2 21.9 7.4 34 8.8 WSW 9 13 5 7 1017.4 - 0.0
17/02:00pm 23.5 20.2 6.3 33 8.8 S 13 20 7 11 1017.6 - 0.0
17/01:30pm 22.9 20.9 7.0 36 8.2 S 7 15 4 8 1017.8 - 0.0
17/01:00pm 22.0 18.7 6.3 36 8.0 S 13 20 7 11 1018.0 - 0.0

Other Formats:

Comma delimited format used in spreadsheet applications
http://www.bom.gov.au/fwo/IDN60801/IDN60801.94755.axf

JavaScript Object Notation format (JSON) in row-major order
http://www.bom.gov.au/fwo/IDN60801/IDN60801.94755.json